createdAt,value
2018-11-25T00:01:50.605Z,21.50
2018-11-25T00:04:20.757Z,22.73
2018-11-25T00:06:50.910Z,21.50
2018-11-25T00:09:21.046Z,22.77
2018-11-25T00:11:51.462Z,22.70
2018-11-25T00:14:21.586Z,22.87
2018-11-25T00:16:51.726Z,21.10
2018-11-25T00:19:21.882Z,21.00
2018-11-25T00:21:51.995Z,19.33
2018-11-25T00:24:22.125Z,20.33
2018-11-25T00:26:52.246Z,21.20
2018-11-25T00:29:22.370Z,20.20
2018-11-25T00:31:52.489Z,21.10
2018-11-25T00:34:23.021Z,20.53
2018-11-25T00:36:53.133Z,36.83
2018-11-25T00:39:23.275Z,40.33
2018-11-25T00:41:53.414Z,28.00
2018-11-25T00:44:23.554Z,20.17
2018-11-25T00:46:53.670Z,20.37
2018-11-25T00:49:23.835Z,22.77
2018-11-25T00:51:53.973Z,22.07
2018-11-25T00:54:24.140Z,20.80
2018-11-25T00:56:54.337Z,20.17
2018-11-25T00:59:24.465Z,19.40
2018-11-25T01:01:54.623Z,18.73
2018-11-25T01:04:24.840Z,17.27
2018-11-25T01:06:54.977Z,16.60
2018-11-25T01:09:25.102Z,15.93
2018-11-25T01:11:55.289Z,13.03
2018-11-25T01:14:25.457Z,13.87
2018-11-25T01:16:55.801Z,12.57
2018-11-25T01:19:25.949Z,16.30
2018-11-25T01:21:56.102Z,17.60
2018-11-25T01:24:26.253Z,17.57
2018-11-25T01:26:56.382Z,17.40
2018-11-25T01:29:26.514Z,17.47
2018-11-25T01:32:01.062Z,19.90
2018-11-25T01:34:31.195Z,19.77
2018-11-25T01:37:01.593Z,17.83
2018-11-25T01:39:31.726Z,18.10
2018-11-25T01:42:01.899Z,17.77
2018-11-25T01:44:32.018Z,18.40
2018-11-25T01:47:02.191Z,16.83
2018-11-25T01:49:32.314Z,21.90
2018-11-25T01:52:02.455Z,26.50
2018-11-25T01:54:32.586Z,27.70
2018-11-25T01:57:02.839Z,17.47
2018-11-25T01:59:32.974Z,20.43
2018-11-25T02:02:03.138Z,17.17
2018-11-25T02:04:33.301Z,16.43
2018-11-25T02:07:03.528Z,15.63
2018-11-25T02:09:33.689Z,16.60
2018-11-25T02:12:03.881Z,15.30
2018-11-25T02:14:34.016Z,14.60
2018-11-25T02:17:04.342Z,15.40
2018-11-25T02:19:34.493Z,14.93
2018-11-25T02:22:05.528Z,14.43
2018-11-25T02:24:35.763Z,14.73
2018-11-25T02:27:06.265Z,14.93
2018-11-25T02:29:36.415Z,14.60
2018-11-25T02:32:07.043Z,14.77
2018-11-25T02:34:37.318Z,13.67
2018-11-25T02:37:07.771Z,14.50
2018-11-25T02:39:37.933Z,13.50
2018-11-25T02:42:08.110Z,14.20
2018-11-25T02:44:38.634Z,13.03
2018-11-25T02:47:08.786Z,14.13
2018-11-25T02:49:38.958Z,13.87
2018-11-25T02:52:09.086Z,13.27
2018-11-25T02:54:39.238Z,13.27
2018-11-25T02:57:09.443Z,13.80
2018-11-25T02:59:39.582Z,14.33
2018-11-25T03:02:10.014Z,13.50
2018-11-25T03:04:40.159Z,21.67
2018-11-25T03:07:10.398Z,40.63
2018-11-25T03:09:40.793Z,40.20
2018-11-25T03:12:11.069Z,18.03
2018-11-25T03:14:41.216Z,14.70
2018-11-25T03:17:11.330Z,13.60
2018-11-25T03:19:41.470Z,13.10
2018-11-25T03:22:11.605Z,12.83
2018-11-25T03:24:41.734Z,13.20
2018-11-25T03:27:11.902Z,14.00
2018-11-25T03:29:42.036Z,13.60
2018-11-25T03:32:18.787Z,13.17
2018-11-25T03:34:48.928Z,13.40
2018-11-25T03:37:19.079Z,12.60
2018-11-25T03:39:49.233Z,12.60
2018-11-25T03:42:19.403Z,12.00
2018-11-25T03:44:49.538Z,12.50
2018-11-25T03:47:19.674Z,12.13
2018-11-25T03:49:49.813Z,11.70
2018-11-25T03:52:19.945Z,12.20
2018-11-25T03:54:50.082Z,12.23
2018-11-25T03:57:20.218Z,15.33
2018-11-25T03:59:50.343Z,14.53
2018-11-25T04:02:20.821Z,13.37
2018-11-25T04:04:50.981Z,12.87
2018-11-25T04:07:21.131Z,12.27
2018-11-25T04:09:51.238Z,12.30
2018-11-25T04:12:21.385Z,13.00
2018-11-25T04:14:51.514Z,12.63
2018-11-25T04:17:21.661Z,12.60
2018-11-25T04:19:51.838Z,12.53
2018-11-25T04:22:21.991Z,11.63
2018-11-25T04:24:52.121Z,13.03
2018-11-25T04:27:22.240Z,11.70
2018-11-25T04:29:52.367Z,10.70
2018-11-25T04:32:22.500Z,11.70
2018-11-25T04:34:52.994Z,12.13
2018-11-25T04:37:23.110Z,11.77
2018-11-25T04:39:53.258Z,11.30
2018-11-25T04:42:23.383Z,11.30
2018-11-25T04:44:53.598Z,12.87
2018-11-25T04:47:23.757Z,12.83
2018-11-25T04:49:54.218Z,12.03
2018-11-25T04:52:24.358Z,12.87
2018-11-25T04:54:54.541Z,12.60
2018-11-25T04:57:24.985Z,12.70
2018-11-25T04:59:55.109Z,13.10
2018-11-25T05:02:25.249Z,12.33
2018-11-25T05:04:55.385Z,12.30
2018-11-25T05:07:25.514Z,12.73
2018-11-25T05:09:55.657Z,12.17
2018-11-25T05:12:25.778Z,13.10
2018-11-25T05:14:55.897Z,13.77
2018-11-25T05:17:26.045Z,13.53
2018-11-25T05:19:56.177Z,13.47
2018-11-25T05:22:26.311Z,13.30
2018-11-25T05:24:56.431Z,12.97
2018-11-25T05:27:26.566Z,13.33
2018-11-25T05:29:56.662Z,12.93
2018-11-25T05:32:26.779Z,12.20
2018-11-25T05:34:56.921Z,12.10
2018-11-25T05:37:27.050Z,11.23
2018-11-25T05:39:57.168Z,9.97
2018-11-25T05:42:27.305Z,10.90
2018-11-25T05:44:57.451Z,10.43
2018-11-25T05:47:27.575Z,10.63
2018-11-25T05:49:57.702Z,10.53
2018-11-25T05:52:27.847Z,10.63
2018-11-25T05:54:57.985Z,11.40
2018-11-25T05:57:28.133Z,11.80
2018-11-25T05:59:58.574Z,11.90
2018-11-25T06:02:28.728Z,11.30
2018-11-25T06:04:58.893Z,11.53
2018-11-25T06:07:29.029Z,10.43
2018-11-25T06:09:59.458Z,12.60
2018-11-25T06:12:29.582Z,12.30
2018-11-25T06:14:59.735Z,12.30
2018-11-25T06:17:29.857Z,12.10
2018-11-25T06:19:59.967Z,11.07
2018-11-25T06:22:30.458Z,12.23
2018-11-25T06:25:00.602Z,13.63
2018-11-25T06:27:38.023Z,18.27
2018-11-25T06:30:00.872Z,18.77
2018-11-25T06:32:30.982Z,17.47
2018-11-25T06:35:01.090Z,14.50
2018-11-25T06:37:31.210Z,15.03
2018-11-25T06:40:01.442Z,15.90
2018-11-25T06:42:31.558Z,14.13
2018-11-25T06:45:01.701Z,13.87
2018-11-25T06:47:31.814Z,14.83
2018-11-25T06:50:01.948Z,12.83
2018-11-25T06:52:32.645Z,12.80
2018-11-25T06:55:03.415Z,12.07
2018-11-25T06:57:33.538Z,12.53
2018-11-25T07:00:03.789Z,11.67
2018-11-25T07:02:33.995Z,11.47
2018-11-25T07:05:04.237Z,13.00
2018-11-25T07:07:34.366Z,11.97
2018-11-25T07:10:05.346Z,11.20
2018-11-25T07:12:35.626Z,10.93
2018-11-25T07:15:08.374Z,12.00
2018-11-25T07:17:38.497Z,11.50
2018-11-25T07:20:11.906Z,11.97
2018-11-25T07:22:42.035Z,10.43
2018-11-25T07:25:21.113Z,10.73
2018-11-25T07:27:51.345Z,11.60
2018-11-25T07:30:29.166Z,11.10
2018-11-25T07:32:59.313Z,12.03
2018-11-25T07:35:29.701Z,12.37
2018-11-25T07:38:00.019Z,13.17
2018-11-25T07:40:30.157Z,13.67
2018-11-25T07:43:00.382Z,14.03
2018-11-25T07:45:31.000Z,12.90
2018-11-25T07:48:00.609Z,13.30
2018-11-25T07:50:30.735Z,14.30
2018-11-25T07:53:00.860Z,12.60
2018-11-25T07:55:30.969Z,13.93
2018-11-25T07:58:01.382Z,13.70
2018-11-25T08:00:31.689Z,13.77
2018-11-25T08:03:01.830Z,14.40
2018-11-25T08:05:32.023Z,14.03
2018-11-25T08:08:02.261Z,13.57
2018-11-25T08:10:32.377Z,16.00
2018-11-25T08:13:02.510Z,15.27
2018-11-25T08:15:32.661Z,14.47
2018-11-25T08:18:02.810Z,14.60
2018-11-25T08:20:32.938Z,17.10
2018-11-25T08:23:03.050Z,14.80
2018-11-25T08:25:33.177Z,15.67
2018-11-25T08:28:03.359Z,15.27
2018-11-25T08:30:33.538Z,15.57
2018-11-25T08:33:03.790Z,15.43
2018-11-25T08:35:33.906Z,15.17
2018-11-25T08:38:04.101Z,14.37
2018-11-25T08:40:34.235Z,15.23
2018-11-25T08:43:04.411Z,14.40
2018-11-25T08:45:34.534Z,14.70
2018-11-25T08:48:04.929Z,14.50
2018-11-25T08:50:35.073Z,13.50
2018-11-25T08:53:05.330Z,14.10
2018-11-25T08:55:37.288Z,14.30
2018-11-25T08:58:07.690Z,13.67
2018-11-25T09:00:37.805Z,13.67
2018-11-25T09:03:08.022Z,13.80
2018-11-25T09:05:38.261Z,14.63
2018-11-25T09:08:08.417Z,16.53
2018-11-25T09:10:38.546Z,18.27
2018-11-25T09:13:08.971Z,17.70
2018-11-25T09:15:39.126Z,16.23
2018-11-25T09:18:09.241Z,14.93
2018-11-25T09:20:39.433Z,13.87
2018-11-25T09:23:09.557Z,14.57
2018-11-25T09:25:39.677Z,13.90
2018-11-25T09:28:09.785Z,13.63
2018-11-25T09:30:39.918Z,16.07
2018-11-25T09:33:10.337Z,14.73
2018-11-25T09:35:45.519Z,15.33
2018-11-25T09:38:15.683Z,15.63
2018-11-25T09:40:45.802Z,15.93
2018-11-25T09:43:15.931Z,15.17
2018-11-25T09:45:46.094Z,15.80
2018-11-25T09:48:16.238Z,16.27
2018-11-25T09:50:46.366Z,15.67
2018-11-25T09:53:16.503Z,16.00
2018-11-25T09:55:46.696Z,14.80
2018-11-25T09:58:16.952Z,17.10
2018-11-25T10:00:47.170Z,16.70
2018-11-25T10:03:17.302Z,16.57
2018-11-25T10:05:47.830Z,16.10
2018-11-25T10:08:17.963Z,16.90
2018-11-25T10:10:52.625Z,16.17
2018-11-25T10:13:18.238Z,16.33
2018-11-25T10:15:48.382Z,16.37
2018-11-25T10:18:18.516Z,17.10
2018-11-25T10:20:48.637Z,17.17
2018-11-25T10:23:18.898Z,17.67
2018-11-25T10:25:48.998Z,16.47
2018-11-25T10:28:19.226Z,16.77
2018-11-25T10:30:49.354Z,16.20
2018-11-25T10:33:19.506Z,16.27
2018-11-25T10:35:49.635Z,15.50
2018-11-25T10:38:19.741Z,16.27
2018-11-25T10:40:50.041Z,17.77
2018-11-25T10:43:20.167Z,18.23
2018-11-25T10:45:50.306Z,16.60
2018-11-25T10:48:20.426Z,17.97
2018-11-25T10:50:51.284Z,22.03
2018-11-25T10:53:20.669Z,17.93
2018-11-25T10:55:50.962Z,18.27
2018-11-25T10:58:21.082Z,19.30
2018-11-25T11:00:55.814Z,24.10
2018-11-25T11:03:31.069Z,19.67
2018-11-25T11:06:06.318Z,18.27
2018-11-25T11:08:36.741Z,17.90
2018-11-25T11:11:07.306Z,22.17
2018-11-25T11:13:37.434Z,18.47
2018-11-25T11:16:07.578Z,17.77
2018-11-25T11:18:37.733Z,18.43
2018-11-25T11:21:07.896Z,17.23
2018-11-25T11:23:38.037Z,17.70
2018-11-25T11:26:18.128Z,21.37
2018-11-25T11:28:48.247Z,17.67
2018-11-25T11:31:18.613Z,17.40
2018-11-25T11:33:48.719Z,24.40
2018-11-25T11:36:18.822Z,18.30
2018-11-25T11:38:49.274Z,15.03
2018-11-25T11:41:19.403Z,20.73
2018-11-25T11:43:49.521Z,17.60
2018-11-25T11:46:19.634Z,19.30
2018-11-25T11:48:49.757Z,25.90
2018-11-25T11:51:25.565Z,23.93
2018-11-25T11:53:50.014Z,16.37
2018-11-25T11:56:20.193Z,22.27
2018-11-25T11:58:50.322Z,27.13
2018-11-25T12:01:20.482Z,32.80
2018-11-25T12:03:50.582Z,28.77
2018-11-25T12:06:20.744Z,45.13
2018-11-25T12:08:50.851Z,48.27
2018-11-25T12:11:20.984Z,39.03
2018-11-25T12:13:51.082Z,38.50
2018-11-25T12:16:21.217Z,46.10
2018-11-25T12:18:51.411Z,33.67
2018-11-25T12:21:21.585Z,36.60
2018-11-25T12:23:52.025Z,32.27
2018-11-25T12:26:22.130Z,28.90
2018-11-25T12:28:52.266Z,57.10
2018-11-25T12:31:22.667Z,28.83
2018-11-25T12:33:53.091Z,40.27
2018-11-25T12:36:23.289Z,24.63
2018-11-25T12:38:53.445Z,30.57
2018-11-25T12:41:23.667Z,25.30
2018-11-25T12:43:53.855Z,27.57
2018-11-25T12:46:24.002Z,23.50
2018-11-25T12:48:54.235Z,22.40
2018-11-25T12:51:24.521Z,21.90
2018-11-25T12:53:55.076Z,43.20
2018-11-25T12:56:25.220Z,34.90
2018-11-25T12:58:55.414Z,28.33
2018-11-25T13:01:25.795Z,29.43
2018-11-25T13:03:56.110Z,28.53
2018-11-25T13:06:26.597Z,26.00
2018-11-25T13:08:56.726Z,22.17
2018-11-25T13:11:26.921Z,24.17
2018-11-25T13:13:57.046Z,28.20
2018-11-25T13:16:27.185Z,25.03
2018-11-25T13:18:57.386Z,23.43
2018-11-25T13:21:27.529Z,22.03
2018-11-25T13:23:57.862Z,20.73
2018-11-25T13:26:28.057Z,20.60
2018-11-25T13:28:58.185Z,21.97
2018-11-25T13:31:28.310Z,21.33
2018-11-25T13:33:58.428Z,21.50
2018-11-25T13:36:28.742Z,19.93
2018-11-25T13:38:58.849Z,21.00
2018-11-25T13:43:52.265Z,20.93
2018-11-25T13:46:22.542Z,24.57
2018-11-25T13:48:52.673Z,27.07
2018-11-25T13:51:23.463Z,25.97
2018-11-25T13:53:58.645Z,23.37
2018-11-25T13:56:28.945Z,22.93
2018-11-25T13:58:59.638Z,22.87
2018-11-25T14:01:29.766Z,22.90
2018-11-25T14:04:00.239Z,24.57
2018-11-25T14:06:30.422Z,30.80
2018-11-25T14:09:00.698Z,25.23
2018-11-25T14:11:30.869Z,24.37
2018-11-25T14:14:01.696Z,24.33
2018-11-25T14:16:32.414Z,22.43
2018-11-25T14:19:03.674Z,24.57
2018-11-25T14:21:33.843Z,25.00
2018-11-25T14:24:05.571Z,23.33
2018-11-25T14:26:50.518Z,23.60
2018-11-25T14:29:20.747Z,21.80
2018-11-25T14:31:51.250Z,22.93
2018-11-25T14:34:21.548Z,32.50
2018-11-25T14:36:51.711Z,25.70
2018-11-25T14:39:21.869Z,27.10
2018-11-25T14:41:51.974Z,27.17
2018-11-25T14:44:22.259Z,25.17
2018-11-25T14:46:52.665Z,25.57
2018-11-25T14:49:23.329Z,23.20
2018-11-25T14:51:53.449Z,24.67
2018-11-25T14:54:23.708Z,22.83
2018-11-25T14:56:53.865Z,23.30
2018-11-25T14:59:24.022Z,22.47
2018-11-25T15:01:54.153Z,24.17
2018-11-25T15:04:24.281Z,26.37
2018-11-25T15:06:54.582Z,23.97
2018-11-25T15:09:24.694Z,24.40
2018-11-25T15:11:54.850Z,24.70
2018-11-25T15:14:25.007Z,25.47
2018-11-25T15:16:55.312Z,24.13
2018-11-25T15:19:25.422Z,24.97
2018-11-25T15:21:55.549Z,27.27
2018-11-25T15:24:25.702Z,25.93
2018-11-25T15:26:55.854Z,25.47
2018-11-25T15:29:25.999Z,27.10
2018-11-25T15:31:56.153Z,26.63
2018-11-25T15:34:26.276Z,27.70
2018-11-25T15:36:56.378Z,28.70
2018-11-25T15:39:26.510Z,26.53
2018-11-25T15:41:56.602Z,29.70
2018-11-25T15:44:26.822Z,29.50
2018-11-25T15:46:56.942Z,27.13
2018-11-25T15:49:27.062Z,26.40
2018-11-25T15:51:57.279Z,26.03
2018-11-25T15:54:27.414Z,25.80
2018-11-25T15:56:57.609Z,24.63
2018-11-25T15:59:27.737Z,24.17
2018-11-25T16:01:57.865Z,25.33
2018-11-25T16:04:27.991Z,26.97
2018-11-25T16:06:58.193Z,25.30
2018-11-25T16:09:28.334Z,27.27
2018-11-25T16:11:58.457Z,25.93
2018-11-25T16:14:28.610Z,25.57
2018-11-25T16:16:58.753Z,24.17
2018-11-25T16:19:29.224Z,24.63
2018-11-25T16:21:59.345Z,25.50
2018-11-25T16:24:29.507Z,23.67
2018-11-25T16:26:59.686Z,26.83
2018-11-25T16:29:29.823Z,25.80
2018-11-25T16:31:59.940Z,26.27
2018-11-25T16:34:30.122Z,29.00
2018-11-25T16:37:00.231Z,27.60
2018-11-25T16:39:30.370Z,26.70
2018-11-25T16:42:00.514Z,25.70
2018-11-25T16:44:30.656Z,24.90
2018-11-25T16:47:00.778Z,25.20
2018-11-25T16:49:30.914Z,24.20
2018-11-25T16:52:01.066Z,23.80
2018-11-25T16:54:31.196Z,23.80
2018-11-25T16:57:01.369Z,26.00
2018-11-25T16:59:31.494Z,28.10
2018-11-25T17:02:01.611Z,30.17
2018-11-25T17:04:31.734Z,30.63
2018-11-25T17:07:01.862Z,32.30
2018-11-25T17:09:35.442Z,36.13
2018-11-25T17:12:05.848Z,35.57
2018-11-25T17:14:36.092Z,30.47
2018-11-25T17:17:06.214Z,30.67
2018-11-25T17:19:36.394Z,30.23
2018-11-25T17:22:06.931Z,29.20
2018-11-25T17:24:37.114Z,30.03
2018-11-25T17:27:07.353Z,28.13
2018-11-25T17:29:37.522Z,31.07
2018-11-25T17:32:07.710Z,29.93
2018-11-25T17:34:37.970Z,30.07
2018-11-25T17:37:08.119Z,28.23
2018-11-25T17:39:38.241Z,29.17
2018-11-25T17:42:08.394Z,29.23
2018-11-25T17:44:38.551Z,30.67
2018-11-25T17:47:08.678Z,62.60
2018-11-25T17:49:38.926Z,215.67
2018-11-25T17:52:09.049Z,85.20
2018-11-25T17:54:39.164Z,50.93
2018-11-25T17:57:09.303Z,38.87
2018-11-25T17:59:39.423Z,35.57
2018-11-25T18:02:09.578Z,35.90
2018-11-25T18:04:39.706Z,30.23
2018-11-25T18:07:09.869Z,29.67
2018-11-25T18:09:40.011Z,31.70
2018-11-25T18:12:10.136Z,35.10
2018-11-25T18:14:40.346Z,32.00
2018-11-25T18:17:10.522Z,48.27
2018-11-25T18:19:40.692Z,42.80
2018-11-25T18:22:16.665Z,37.83
2018-11-25T18:24:46.802Z,37.97
2018-11-25T18:27:16.952Z,31.27
2018-11-25T18:29:47.122Z,64.67
2018-11-25T18:32:17.270Z,37.13
2018-11-25T18:34:47.414Z,33.47
2018-11-25T18:37:17.554Z,33.57
2018-11-25T18:39:47.706Z,30.07
2018-11-25T18:42:17.907Z,34.23
2018-11-25T18:44:48.126Z,31.40
2018-11-25T18:47:18.575Z,35.23
2018-11-25T18:49:48.743Z,32.23
2018-11-25T18:52:18.867Z,31.30
2018-11-25T18:54:48.015Z,31.10
2018-11-25T18:57:18.137Z,33.17
2018-11-25T18:59:48.282Z,27.93
2018-11-25T19:02:23.691Z,28.93
2018-11-25T19:04:53.814Z,24.10
2018-11-25T19:07:23.993Z,50.33
2018-11-25T19:09:54.206Z,53.03
2018-11-25T19:12:24.317Z,29.53
2018-11-25T19:14:54.454Z,28.10
2018-11-25T19:17:24.673Z,32.53
2018-11-25T19:19:54.830Z,31.53
2018-11-25T19:22:24.986Z,37.27
2018-11-25T19:24:55.104Z,32.70
2018-11-25T19:27:25.242Z,31.43
2018-11-25T19:29:55.395Z,32.17
2018-11-25T19:32:25.522Z,32.27
2018-11-25T19:34:55.652Z,33.13
2018-11-25T19:37:25.767Z,28.13
2018-11-25T19:39:55.907Z,29.60
2018-11-25T19:42:26.038Z,31.73
2018-11-25T19:44:56.233Z,28.97
2018-11-25T19:47:26.398Z,31.07
2018-11-25T19:49:56.552Z,28.30
2018-11-25T19:52:26.682Z,28.33
2018-11-25T19:54:56.947Z,31.00
2018-11-25T19:57:27.050Z,28.73
2018-11-25T19:59:57.162Z,27.83
2018-11-25T20:02:27.357Z,28.67
2018-11-25T20:04:57.473Z,33.07
2018-11-25T20:07:27.696Z,31.07
2018-11-25T20:09:58.141Z,37.90
2018-11-25T20:12:33.606Z,33.53
2018-11-25T20:15:04.060Z,33.63
2018-11-25T20:17:34.433Z,48.20
2018-11-25T20:20:06.688Z,87.10
2018-11-25T20:22:37.011Z,30.80
2018-11-25T20:25:10.292Z,22.87
2018-11-25T20:27:42.028Z,27.07
2018-11-25T20:30:14.191Z,29.20
2018-11-25T20:32:49.760Z,21.63
2018-11-25T20:35:20.385Z,23.57
2018-11-25T20:37:56.171Z,23.63
2018-11-25T20:40:26.470Z,24.37
2018-11-25T20:42:56.659Z,24.43
2018-11-25T20:45:38.413Z,23.03
2018-11-25T20:48:00.853Z,23.50
2018-11-25T20:50:29.947Z,21.70
2018-11-25T20:53:04.249Z,23.30
2018-11-25T20:55:33.368Z,21.93
2018-11-25T20:58:02.439Z,20.73
2018-11-25T21:00:31.611Z,19.97
2018-11-25T21:03:00.668Z,17.63
2018-11-25T21:05:29.758Z,16.43
2018-11-25T21:07:58.820Z,17.00
2018-11-25T21:10:27.875Z,15.50
2018-11-25T21:12:56.951Z,15.60
2018-11-25T21:15:26.017Z,15.17
2018-11-25T21:17:55.085Z,15.37
2018-11-25T21:20:25.898Z,15.47
2018-11-25T21:22:54.958Z,22.53
2018-11-25T21:25:24.444Z,20.07
2018-11-25T21:27:53.508Z,18.77
2018-11-25T21:30:24.749Z,17.60
2018-11-25T21:32:55.148Z,13.80
2018-11-25T21:35:24.505Z,13.97
2018-11-25T21:37:53.551Z,10.67
2018-11-25T21:40:23.823Z,8.63
2018-11-25T21:42:52.953Z,7.30
2018-11-25T21:45:22.435Z,7.30
2018-11-25T21:47:51.545Z,6.70
2018-11-25T21:50:24.052Z,6.20
2018-11-25T21:52:53.181Z,6.23
2018-11-25T21:55:22.391Z,5.10
2018-11-25T21:57:51.458Z,8.87
2018-11-25T22:00:23.067Z,11.77
2018-11-25T22:02:52.152Z,8.43
2018-11-25T22:05:24.787Z,5.47
2018-11-25T22:07:50.346Z,5.27
2018-11-25T22:10:20.472Z,4.73
2018-11-25T22:12:49.920Z,4.50
2018-11-25T22:15:22.835Z,4.63
2018-11-25T22:17:52.034Z,4.60
2018-11-25T22:20:21.104Z,4.30
2018-11-25T22:22:50.182Z,4.00
2018-11-25T22:25:20.140Z,4.17
2018-11-25T22:27:49.243Z,4.10
2018-11-25T22:30:21.256Z,4.70
2018-11-25T22:32:50.338Z,6.10
2018-11-25T22:35:20.821Z,4.13
2018-11-25T22:37:49.900Z,4.17
2018-11-25T22:40:19.728Z,4.23
2018-11-25T22:42:49.756Z,3.73
2018-11-25T22:45:20.176Z,4.10
2018-11-25T22:47:49.251Z,3.53
2018-11-25T22:50:19.198Z,7.70
2018-11-25T22:52:48.452Z,4.53
2018-11-25T22:55:18.882Z,7.90
2018-11-25T22:57:48.004Z,7.70
2018-11-25T23:00:20.976Z,4.10
2018-11-25T23:02:50.068Z,3.43
2018-11-25T23:05:30.386Z,3.47
2018-11-25T23:07:59.444Z,3.10
2018-11-25T23:10:28.511Z,3.33
2018-11-25T23:12:58.028Z,3.00
2018-11-25T23:15:27.169Z,3.13
2018-11-25T23:17:56.237Z,3.27
2018-11-25T23:20:25.337Z,3.00
2018-11-25T23:22:54.396Z,3.20
2018-11-25T23:25:23.489Z,3.00
2018-11-25T23:27:52.564Z,3.27
2018-11-25T23:30:21.671Z,2.97
2018-11-25T23:32:50.763Z,2.90
2018-11-25T23:35:22.312Z,3.23
2018-11-25T23:37:51.391Z,2.80
2018-11-25T23:40:20.479Z,3.20
2018-11-25T23:42:49.546Z,3.20
2018-11-25T23:45:18.609Z,2.80
2018-11-25T23:47:47.692Z,3.23
2018-11-25T23:50:16.776Z,2.93
2018-11-25T23:52:46.903Z,3.60
2018-11-25T23:55:16.160Z,3.30
2018-11-25T23:57:45.235Z,3.97
